createdAt,value
2023-04-07T00:00:27.132Z,0.30
2023-04-07T00:02:29.905Z,0.38
2023-04-07T00:04:33.888Z,0.40
2023-04-07T00:06:36.703Z,0.35
2023-04-07T00:08:39.822Z,0.30
2023-04-07T00:10:42.542Z,0.38
2023-04-07T00:12:45.321Z,0.40
2023-04-07T00:14:48.032Z,0.43
2023-04-07T00:16:50.636Z,0.50
2023-04-07T00:18:53.387Z,0.30
2023-04-07T00:20:56.532Z,0.40
2023-04-07T00:22:59.143Z,1.45
2023-04-07T00:25:01.768Z,0.30
2023-04-07T00:27:06.008Z,0.32
2023-04-07T00:29:08.744Z,0.50
2023-04-07T00:31:11.360Z,0.45
2023-04-07T00:33:13.978Z,0.30
2023-04-07T00:35:16.742Z,0.40
2023-04-07T00:37:19.599Z,0.30
2023-04-07T00:39:22.349Z,0.38
2023-04-07T00:41:24.957Z,0.73
2023-04-07T00:43:27.983Z,0.40
2023-04-07T00:45:30.701Z,0.55
2023-04-07T00:47:33.318Z,0.30
2023-04-07T00:49:38.000Z,0.60
2023-04-07T00:51:40.758Z,0.50
2023-04-07T00:53:44.006Z,0.40
2023-04-07T00:55:46.952Z,0.40
2023-04-07T00:57:49.630Z,0.43
2023-04-07T00:59:55.607Z,0.85
2023-04-07T01:02:07.323Z,0.30
2023-04-07T01:04:23.371Z,0.40
2023-04-07T01:06:31.669Z,0.45
2023-04-07T01:08:50.360Z,0.60
2023-04-07T01:11:32.013Z,0.43
2023-04-07T01:13:48.527Z,0.38
2023-04-07T01:15:57.350Z,0.50
2023-04-07T01:18:09.000Z,1.25
2023-04-07T01:20:16.611Z,0.38
2023-04-07T01:22:27.652Z,0.68
2023-04-07T01:24:56.674Z,0.70
2023-04-07T01:27:14.289Z,0.80
2023-04-07T01:29:37.446Z,0.57
2023-04-07T01:31:42.076Z,0.32
2023-04-07T01:33:47.773Z,0.63
2023-04-07T01:35:51.600Z,0.60
2023-04-07T01:37:55.227Z,0.50
2023-04-07T01:39:57.873Z,0.28
2023-04-07T01:42:04.990Z,0.60
2023-04-07T01:44:09.738Z,0.65
2023-04-07T01:46:12.347Z,0.50
2023-04-07T01:48:16.228Z,0.68
2023-04-07T01:50:20.807Z,0.60
2023-04-07T01:52:23.484Z,0.50
2023-04-07T01:54:27.456Z,0.65
2023-04-07T01:56:30.234Z,1.20
2023-04-07T01:58:33.104Z,0.55
2023-04-07T02:00:35.973Z,0.63
2023-04-07T02:02:42.541Z,0.77
2023-04-07T02:05:00.202Z,0.55
2023-04-07T02:07:09.903Z,0.73
2023-04-07T02:09:17.674Z,0.65
2023-04-07T02:11:22.584Z,0.68
2023-04-07T02:13:26.586Z,0.60
2023-04-07T02:15:31.489Z,0.77
2023-04-07T02:17:36.199Z,0.60
2023-04-07T02:19:39.783Z,0.45
2023-04-07T02:21:44.477Z,0.65
2023-04-07T02:23:47.221Z,0.50
2023-04-07T02:25:49.916Z,0.63
2023-04-07T02:27:53.085Z,0.50
2023-04-07T02:29:55.907Z,0.63
2023-04-07T02:31:58.637Z,0.63
2023-04-07T02:34:01.536Z,0.57
2023-04-07T02:36:04.447Z,1.17
2023-04-07T02:38:07.082Z,0.57
2023-04-07T02:40:10.051Z,0.93
2023-04-07T02:42:12.726Z,0.70
2023-04-07T02:44:15.531Z,0.57
2023-04-07T02:46:18.140Z,0.47
2023-04-07T02:48:21.032Z,0.82
2023-04-07T02:50:23.748Z,0.65
2023-04-07T02:52:26.444Z,0.70
2023-04-07T02:54:28.979Z,1.15
2023-04-07T02:56:31.740Z,0.75
2023-04-07T02:58:34.397Z,0.90
2023-04-07T03:00:37.025Z,0.80
2023-04-07T03:02:39.785Z,0.80
2023-04-07T03:04:42.668Z,0.52
2023-04-07T03:06:45.347Z,0.57
2023-04-07T03:08:47.907Z,1.00
2023-04-07T03:10:50.617Z,0.52
2023-04-07T03:12:53.404Z,0.70
2023-04-07T03:14:56.013Z,0.60
2023-04-07T03:16:58.715Z,0.77
2023-04-07T03:19:01.367Z,0.63
2023-04-07T03:21:03.967Z,0.63
2023-04-07T03:23:07.231Z,0.68
2023-04-07T03:25:10.112Z,0.95
2023-04-07T03:27:12.770Z,0.73
2023-04-07T03:29:15.510Z,1.20
2023-04-07T03:31:18.411Z,0.70
2023-04-07T03:33:21.219Z,0.63
2023-04-07T03:35:23.866Z,0.75
2023-04-07T03:37:26.694Z,0.55
2023-04-07T03:39:29.295Z,0.70
2023-04-07T03:41:31.869Z,0.57
2023-04-07T03:43:34.679Z,0.80
2023-04-07T03:45:37.333Z,0.82
2023-04-07T03:47:40.005Z,0.80
2023-04-07T03:49:42.564Z,0.65
2023-04-07T03:51:45.174Z,0.70
2023-04-07T03:53:47.764Z,0.60
2023-04-07T03:55:50.874Z,0.93
2023-04-07T03:57:53.587Z,1.13
2023-04-07T03:59:56.532Z,0.70
2023-04-07T04:01:59.167Z,0.77
2023-04-07T04:04:02.196Z,0.90
2023-04-07T04:06:05.260Z,1.10
2023-04-07T04:08:07.924Z,1.58
2023-04-07T04:10:10.834Z,0.70
2023-04-07T04:12:13.505Z,0.68
2023-04-07T04:14:16.862Z,0.88
2023-04-07T04:16:19.505Z,0.60
2023-04-07T04:18:22.149Z,0.88
2023-04-07T04:20:24.778Z,1.05
2023-04-07T04:22:27.651Z,0.77
2023-04-07T04:24:30.332Z,0.70
2023-04-07T04:26:32.931Z,0.68
2023-04-07T04:28:35.908Z,0.82
2023-04-07T04:30:38.566Z,0.65
2023-04-07T04:32:41.548Z,0.90
2023-04-07T04:34:44.331Z,1.15
2023-04-07T04:36:49.348Z,0.80
2023-04-07T04:38:52.299Z,0.60
2023-04-07T04:40:54.950Z,0.80
2023-04-07T04:42:57.555Z,0.70
2023-04-07T04:45:00.210Z,0.68
2023-04-07T04:47:03.260Z,0.93
2023-04-07T04:49:06.718Z,0.90
2023-04-07T04:51:09.307Z,0.77
2023-04-07T04:53:12.397Z,0.50
2023-04-07T04:55:15.429Z,1.00
2023-04-07T04:57:17.965Z,1.00
2023-04-07T04:59:20.640Z,0.85
2023-04-07T05:01:23.309Z,1.00
2023-04-07T05:03:27.712Z,0.70
2023-04-07T05:05:30.749Z,1.05
2023-04-07T05:07:33.415Z,0.82
2023-04-07T05:09:36.139Z,0.70
2023-04-07T05:11:38.726Z,1.00
2023-04-07T05:13:41.423Z,1.08
2023-04-07T05:15:44.294Z,1.00
2023-04-07T05:17:50.756Z,0.82
2023-04-07T05:19:53.439Z,0.65
2023-04-07T05:21:56.450Z,0.82
2023-04-07T05:23:59.120Z,1.15
2023-04-07T05:26:01.779Z,1.20
2023-04-07T05:28:04.823Z,1.05
2023-04-07T05:30:08.136Z,1.13
2023-04-07T05:32:10.850Z,1.02
2023-04-07T05:34:13.596Z,1.60
2023-04-07T05:36:16.529Z,0.85
2023-04-07T05:38:19.159Z,1.73
2023-04-07T05:40:21.850Z,1.35
2023-04-07T05:42:24.599Z,1.30
2023-04-07T05:44:27.319Z,1.10
2023-04-07T05:46:30.036Z,0.65
2023-04-07T05:48:32.591Z,1.10
2023-04-07T05:50:35.375Z,1.10
2023-04-07T05:52:38.013Z,1.35
2023-04-07T05:54:40.964Z,0.93
2023-04-07T05:56:43.701Z,1.52
2023-04-07T05:58:46.486Z,0.63
2023-04-07T06:00:52.521Z,1.13
2023-04-07T06:02:59.999Z,1.02
2023-04-07T06:05:03.782Z,1.10
2023-04-07T06:07:07.084Z,1.05
2023-04-07T06:09:09.812Z,1.15
2023-04-07T06:11:12.478Z,1.88
2023-04-07T06:13:15.163Z,0.65
2023-04-07T06:15:17.935Z,1.20
2023-04-07T06:17:20.798Z,1.13
2023-04-07T06:19:23.394Z,1.38
2023-04-07T06:21:26.746Z,0.95
2023-04-07T06:23:29.405Z,1.65
2023-04-07T06:25:32.084Z,1.00
2023-04-07T06:27:35.874Z,1.38
2023-04-07T06:29:38.575Z,0.82
2023-04-07T06:31:41.738Z,1.02
2023-04-07T06:33:45.171Z,1.17
2023-04-07T06:35:47.842Z,0.90
2023-04-07T06:37:50.539Z,4.15
2023-04-07T06:39:53.381Z,0.98
2023-04-07T06:41:57.341Z,0.75
2023-04-07T06:43:59.978Z,0.65
2023-04-07T06:46:02.619Z,1.27
2023-04-07T06:48:05.738Z,1.17
2023-04-07T06:50:10.068Z,0.95
2023-04-07T06:52:13.425Z,0.50
2023-04-07T06:54:16.415Z,0.70
2023-04-07T06:56:19.299Z,1.05
2023-04-07T06:58:21.937Z,1.48
2023-04-07T07:00:25.347Z,0.98
2023-04-07T07:02:28.354Z,1.10
2023-04-07T07:04:31.138Z,0.95
2023-04-07T07:06:33.876Z,1.05
2023-04-07T07:08:36.485Z,0.98
2023-04-07T07:10:39.113Z,0.88
2023-04-07T07:12:41.884Z,1.25
2023-04-07T07:14:44.694Z,1.02
2023-04-07T07:16:47.332Z,0.80
2023-04-07T07:18:51.563Z,0.85
2023-04-07T07:20:54.333Z,1.00
2023-04-07T07:22:56.975Z,1.10
2023-04-07T07:24:59.942Z,1.15
2023-04-07T07:27:03.585Z,1.08
2023-04-07T07:29:06.496Z,0.75
2023-04-07T07:31:16.611Z,0.80
2023-04-07T07:33:23.063Z,1.08
2023-04-07T07:35:25.738Z,1.23
2023-04-07T07:37:28.407Z,1.35
2023-04-07T07:39:31.116Z,1.25
2023-04-07T07:41:34.655Z,1.08
2023-04-07T07:43:38.030Z,1.27
2023-04-07T07:45:43.259Z,0.70
2023-04-07T07:47:46.283Z,1.17
2023-04-07T07:49:49.414Z,0.95
2023-04-07T07:51:52.284Z,0.88
2023-04-07T07:53:55.154Z,0.82
2023-04-07T07:55:58.294Z,0.88
2023-04-07T07:58:03.098Z,0.73
2023-04-07T08:00:08.093Z,1.00
2023-04-07T08:02:11.387Z,0.88
2023-04-07T08:04:14.461Z,0.70
2023-04-07T08:06:17.958Z,1.00
2023-04-07T08:08:20.750Z,1.45
2023-04-07T08:10:25.426Z,0.98
2023-04-07T08:12:28.897Z,0.63
2023-04-07T08:14:31.760Z,0.80
2023-04-07T08:16:34.986Z,1.52
2023-04-07T08:18:38.202Z,1.42
2023-04-07T08:20:46.819Z,1.30
2023-04-07T08:22:49.990Z,0.90
2023-04-07T08:24:52.985Z,0.93
2023-04-07T08:26:56.976Z,1.67
2023-04-07T08:29:00.271Z,0.98
2023-04-07T08:31:03.039Z,1.08
2023-04-07T08:35:10.172Z,1.00
2023-04-07T08:37:12.760Z,1.17
2023-04-07T08:39:15.550Z,1.10
2023-04-07T08:41:24.490Z,1.02
2023-04-07T08:43:29.437Z,1.60
2023-04-07T08:45:34.293Z,0.75
2023-04-07T08:47:37.881Z,1.15
2023-04-07T08:49:45.104Z,0.93
2023-04-07T08:51:48.697Z,1.00
2023-04-07T08:53:54.335Z,1.08
2023-04-07T08:55:58.028Z,1.13
2023-04-07T08:58:02.246Z,0.75
2023-04-07T09:00:06.122Z,0.90
2023-04-07T09:02:09.518Z,1.10
2023-04-07T09:04:12.650Z,0.68
2023-04-07T09:06:16.297Z,0.98
2023-04-07T09:08:19.003Z,1.50
2023-04-07T09:10:21.641Z,0.90
2023-04-07T09:12:26.075Z,1.05
2023-04-07T09:14:29.442Z,0.90
2023-04-07T09:16:32.413Z,1.10
2023-04-07T09:18:35.640Z,0.93
2023-04-07T09:21:01.362Z,1.35
2023-04-07T09:23:04.032Z,1.02
2023-04-07T09:25:18.464Z,1.30
2023-04-07T09:27:21.144Z,1.73
2023-04-07T09:29:24.018Z,1.17
2023-04-07T09:31:48.680Z,0.75
2023-04-07T09:33:52.070Z,1.33
2023-04-07T09:35:55.077Z,1.42
2023-04-07T09:38:08.749Z,0.77
2023-04-07T09:40:11.847Z,1.27
2023-04-07T09:42:14.986Z,1.27
2023-04-07T09:44:24.924Z,1.80
2023-04-07T09:46:29.546Z,1.02
2023-04-07T09:48:32.857Z,1.02
2023-04-07T09:50:37.367Z,1.45
2023-04-07T09:52:53.217Z,1.30
2023-04-07T09:54:56.996Z,1.40
2023-04-07T09:57:02.600Z,1.20
2023-04-07T09:59:05.556Z,1.13
2023-04-07T10:01:12.520Z,1.00
2023-04-07T10:03:15.884Z,1.48
2023-04-07T10:05:21.793Z,1.33
2023-04-07T10:07:24.683Z,1.38
2023-04-07T10:09:28.716Z,1.85
2023-04-07T10:11:33.398Z,1.63
2023-04-07T10:13:39.644Z,1.10
2023-04-07T10:15:43.022Z,2.00
2023-04-07T10:17:48.458Z,1.63
2023-04-07T10:19:52.429Z,1.63
2023-04-07T10:21:56.093Z,1.58
2023-04-07T10:24:04.287Z,1.67
2023-04-07T10:26:08.611Z,1.67
2023-04-07T10:28:13.325Z,2.90
2023-04-07T10:30:24.384Z,1.50
2023-04-07T10:32:27.572Z,1.17
2023-04-07T10:34:50.934Z,2.10
2023-04-07T10:37:23.762Z,2.42
2023-04-07T10:39:26.562Z,2.25
2023-04-07T10:41:36.648Z,1.50
2023-04-07T10:43:42.229Z,1.50
2023-04-07T10:45:52.103Z,1.02
2023-04-07T10:48:03.962Z,1.27
2023-04-07T10:52:25.369Z,2.08
2023-04-07T10:54:29.406Z,2.22
2023-04-07T10:57:05.444Z,2.33
2023-04-07T10:59:17.476Z,2.10
2023-04-07T11:01:21.211Z,1.50
2023-04-07T11:03:25.745Z,2.00
2023-04-07T11:05:28.882Z,1.48
2023-04-07T11:07:52.736Z,1.60
2023-04-07T11:10:16.568Z,1.70
2023-04-07T11:12:25.243Z,2.83
2023-04-07T11:14:31.953Z,1.58
2023-04-07T11:16:42.719Z,2.05
2023-04-07T11:18:48.320Z,1.60
2023-04-07T11:20:54.649Z,1.45
2023-04-07T11:23:00.822Z,2.20
2023-04-07T11:25:03.740Z,2.33
2023-04-07T11:27:07.568Z,3.22
2023-04-07T11:29:12.385Z,2.22
2023-04-07T11:31:31.483Z,2.15
2023-04-07T11:33:37.594Z,3.03
2023-04-07T11:35:57.775Z,2.75
2023-04-07T11:38:02.043Z,1.25
2023-04-07T11:40:05.155Z,1.63
2023-04-07T11:42:09.048Z,1.63
2023-04-07T11:44:17.570Z,1.25
2023-04-07T11:46:26.810Z,1.83
2023-04-07T11:48:32.967Z,1.88
2023-04-07T11:50:43.046Z,1.23
2023-04-07T11:52:49.460Z,1.30
2023-04-07T11:54:52.305Z,1.50
2023-04-07T11:56:56.187Z,1.92
2023-04-07T11:58:59.375Z,1.88
2023-04-07T12:01:09.334Z,1.50
2023-04-07T12:03:16.558Z,1.30
2023-04-07T12:05:19.362Z,1.30
2023-04-07T12:07:22.147Z,1.20
2023-04-07T12:09:32.574Z,1.45
2023-04-07T12:11:36.773Z,1.23
2023-04-07T12:13:39.635Z,1.30
2023-04-07T12:15:42.676Z,1.20
2023-04-07T12:17:49.669Z,1.48
2023-04-07T12:19:53.291Z,1.60
2023-04-07T12:21:57.199Z,1.45
2023-04-07T12:23:59.966Z,1.25
2023-04-07T12:26:03.033Z,1.88
2023-04-07T12:28:06.126Z,1.30
2023-04-07T12:30:09.390Z,2.10
2023-04-07T12:32:12.448Z,1.35
2023-04-07T12:34:15.122Z,1.60
2023-04-07T12:36:17.762Z,1.63
2023-04-07T12:38:21.151Z,1.45
2023-04-07T12:40:24.648Z,1.55
2023-04-07T12:42:27.829Z,1.33
2023-04-07T12:44:30.515Z,1.35
2023-04-07T12:46:33.250Z,1.30
2023-04-07T12:48:36.115Z,1.08
2023-04-07T12:50:38.919Z,1.05
2023-04-07T12:52:41.683Z,1.42
2023-04-07T12:54:45.570Z,1.20
2023-04-07T12:56:48.328Z,1.55
2023-04-07T12:58:51.215Z,1.20
2023-04-07T13:00:53.946Z,1.75
2023-04-07T13:02:56.867Z,1.23
2023-04-07T13:04:59.712Z,1.20
2023-04-07T13:07:03.327Z,1.73
2023-04-07T13:09:06.206Z,2.05
2023-04-07T13:11:08.877Z,1.52
2023-04-07T13:13:11.686Z,1.65
2023-04-07T13:15:14.594Z,1.67
2023-04-07T13:17:18.853Z,1.67
2023-04-07T13:19:22.144Z,1.25
2023-04-07T13:25:35.904Z,1.67
2023-04-07T13:27:39.106Z,1.67
2023-04-07T13:29:42.521Z,1.30
2023-04-07T13:31:49.148Z,1.90
2023-04-07T13:33:52.006Z,1.63
2023-04-07T13:35:54.885Z,1.90
2023-04-07T13:37:57.720Z,2.08
2023-04-07T13:40:00.769Z,1.83
2023-04-07T13:42:03.543Z,1.70
2023-04-07T13:44:06.546Z,1.20
2023-04-07T13:46:27.331Z,1.88
2023-04-07T13:48:34.595Z,1.02
2023-04-07T13:50:37.989Z,1.70
2023-04-07T13:52:40.763Z,2.13
2023-04-07T13:54:45.516Z,1.77
2023-04-07T13:56:51.764Z,1.65
2023-04-07T13:58:54.514Z,1.35
2023-04-07T14:00:57.434Z,1.58
2023-04-07T14:03:00.444Z,1.67
2023-04-07T14:05:03.390Z,1.48
2023-04-07T14:07:06.578Z,1.70
2023-04-07T14:09:09.629Z,1.33
2023-04-07T14:11:12.542Z,1.27
2023-04-07T14:13:15.886Z,1.45
2023-04-07T14:15:18.623Z,2.03
2023-04-07T14:17:21.399Z,2.20
2023-04-07T14:19:24.678Z,1.67
2023-04-07T14:21:30.228Z,1.20
2023-04-07T14:23:37.150Z,1.70
2023-04-07T14:25:40.186Z,1.77
2023-04-07T14:27:42.767Z,1.48
2023-04-07T14:29:45.666Z,1.35
2023-04-07T14:31:48.901Z,1.40
2023-04-07T14:33:51.773Z,1.35
2023-04-07T14:35:54.696Z,1.23
2023-04-07T14:37:57.462Z,1.52
2023-04-07T14:40:03.080Z,0.80
2023-04-07T14:42:07.664Z,1.50
2023-04-07T14:44:10.705Z,1.60
2023-04-07T14:46:15.115Z,1.67
2023-04-07T14:48:17.900Z,1.63
2023-04-07T14:50:20.765Z,1.38
2023-04-07T14:52:23.429Z,1.50
2023-04-07T14:54:26.138Z,1.75
2023-04-07T14:56:28.737Z,1.75
2023-04-07T14:58:32.340Z,1.85
2023-04-07T15:00:35.666Z,1.40
2023-04-07T15:02:38.894Z,1.33
2023-04-07T15:04:42.412Z,1.30
2023-04-07T15:06:47.269Z,1.40
2023-04-07T15:08:50.181Z,1.45
2023-04-07T15:10:52.963Z,1.30
2023-04-07T15:12:55.685Z,1.33
2023-04-07T15:14:58.430Z,1.40
2023-04-07T15:17:01.149Z,1.77
2023-04-07T15:19:03.944Z,1.20
2023-04-07T15:21:07.262Z,1.38
2023-04-07T15:23:09.856Z,1.52
2023-04-07T15:25:12.475Z,1.40
2023-04-07T15:27:16.312Z,1.50
2023-04-07T15:29:19.071Z,1.60
2023-04-07T15:31:23.581Z,1.50
2023-04-07T15:33:26.550Z,1.55
2023-04-07T15:35:29.162Z,2.20
2023-04-07T15:37:32.216Z,1.77
2023-04-07T15:39:34.915Z,1.50
2023-04-07T15:41:38.245Z,1.35
2023-04-07T15:43:40.980Z,1.52
2023-04-07T15:45:45.093Z,0.98
2023-04-07T15:47:47.936Z,1.67
2023-04-07T15:49:50.565Z,2.22
2023-04-07T15:51:53.244Z,1.48
2023-04-07T15:53:56.023Z,1.70
2023-04-07T15:55:58.792Z,1.63
2023-04-07T15:58:02.337Z,1.30
2023-04-07T16:00:05.834Z,1.88
2023-04-07T16:02:08.912Z,1.88
2023-04-07T16:04:11.753Z,1.60
2023-04-07T16:06:14.430Z,1.92
2023-04-07T16:08:17.799Z,2.22
2023-04-07T16:10:20.588Z,1.50
2023-04-07T16:12:23.500Z,2.03
2023-04-07T16:14:29.283Z,1.10
2023-04-07T16:16:36.067Z,1.30
2023-04-07T16:18:39.010Z,1.40
2023-04-07T16:20:41.858Z,1.42
2023-04-07T16:22:46.617Z,1.58
2023-04-07T16:24:49.328Z,1.33
2023-04-07T16:26:52.664Z,1.48
2023-04-07T16:28:55.444Z,1.67
2023-04-07T16:30:58.226Z,1.60
2023-04-07T16:33:01.764Z,1.00
2023-04-07T16:35:04.888Z,1.58
2023-04-07T16:37:07.589Z,1.73
2023-04-07T16:39:11.538Z,1.60
2023-04-07T16:41:14.247Z,1.45
2023-04-07T16:43:17.015Z,1.20
2023-04-07T16:45:19.665Z,1.13
2023-04-07T16:47:22.315Z,1.83
2023-04-07T16:49:25.026Z,1.60
2023-04-07T16:51:28.639Z,1.45
2023-04-07T16:53:31.335Z,1.50
2023-04-07T16:55:36.681Z,1.75
2023-04-07T16:57:39.345Z,1.70
2023-04-07T16:59:42.156Z,2.13
2023-04-07T17:01:44.949Z,1.25
2023-04-07T17:03:52.773Z,2.47
2023-04-07T17:05:56.148Z,1.58
2023-04-07T17:07:58.931Z,1.88
2023-04-07T17:10:01.681Z,1.48
2023-04-07T17:12:06.527Z,1.65
2023-04-07T17:14:09.254Z,1.60
2023-04-07T17:16:15.017Z,3.67
2023-04-07T17:18:17.684Z,1.55
2023-04-07T17:20:20.544Z,2.15
2023-04-07T17:22:23.137Z,1.38
2023-04-07T17:24:25.841Z,1.88
2023-04-07T17:26:28.466Z,1.85
2023-04-07T17:28:31.248Z,1.75
2023-04-07T17:30:33.959Z,1.55
2023-04-07T17:32:39.561Z,1.17
2023-04-07T17:34:42.439Z,1.60
2023-04-07T17:36:45.108Z,2.40
2023-04-07T17:38:47.795Z,1.77
2023-04-07T17:40:59.969Z,2.83
2023-04-07T17:43:02.894Z,2.78
2023-04-07T17:45:08.912Z,3.15
2023-04-07T17:47:12.549Z,3.50
2023-04-07T17:49:15.888Z,1.80
2023-04-07T17:51:18.709Z,2.33
2023-04-07T17:53:21.348Z,2.03
2023-04-07T17:55:24.214Z,2.20
2023-04-07T17:57:26.919Z,2.03
2023-04-07T17:59:29.578Z,2.85
2023-04-07T18:01:32.433Z,2.28
2023-04-07T18:03:35.347Z,1.88
2023-04-07T18:05:38.928Z,3.63
2023-04-07T18:07:41.678Z,1.70
2023-04-07T18:09:45.063Z,2.13
2023-04-07T18:11:47.920Z,1.90
2023-04-07T18:13:50.922Z,2.78
2023-04-07T18:15:53.861Z,4.05
2023-04-07T18:17:57.248Z,2.13
2023-04-07T18:20:00.013Z,1.77
2023-04-07T18:22:02.684Z,2.20
2023-04-07T18:24:05.490Z,2.60
2023-04-07T18:26:08.247Z,2.30
2023-04-07T18:28:12.042Z,2.25
2023-04-07T18:30:14.824Z,1.90
2023-04-07T18:32:17.480Z,1.90
2023-04-07T18:34:20.126Z,2.30
2023-04-07T18:36:25.781Z,1.92
2023-04-07T18:38:28.480Z,1.60
2023-04-07T18:40:33.530Z,2.10
2023-04-07T18:42:36.206Z,1.60
2023-04-07T18:44:39.024Z,1.52
2023-04-07T18:46:41.749Z,1.70
2023-04-07T18:48:44.726Z,1.73
2023-04-07T18:50:52.474Z,2.10
2023-04-07T18:52:55.155Z,1.83
2023-04-07T18:54:58.173Z,3.40
2023-04-07T18:57:01.103Z,1.20
2023-04-07T18:59:04.061Z,1.48
2023-04-07T19:01:06.865Z,1.38
2023-04-07T19:03:09.987Z,1.30
2023-04-07T19:05:12.879Z,2.20
2023-04-07T19:07:15.690Z,1.38
2023-04-07T19:09:18.465Z,1.50
2023-04-07T19:11:21.209Z,2.90
2023-04-07T19:13:23.847Z,1.77
2023-04-07T19:15:26.940Z,2.55
2023-04-07T19:17:30.508Z,1.65
2023-04-07T19:19:33.584Z,1.67
2023-04-07T19:21:36.304Z,1.90
2023-04-07T19:23:40.867Z,1.52
2023-04-07T19:25:45.741Z,2.50
2023-04-07T19:27:48.776Z,1.40
2023-04-07T19:29:51.732Z,2.25
2023-04-07T19:31:56.092Z,1.30
2023-04-07T19:33:58.947Z,1.83
2023-04-07T19:36:04.427Z,1.40
2023-04-07T19:38:07.439Z,1.13
2023-04-07T19:40:10.919Z,1.45
2023-04-07T19:42:13.635Z,1.55
2023-04-07T19:44:16.945Z,1.45
2023-04-07T19:46:19.750Z,1.40
2023-04-07T19:48:22.762Z,1.30
2023-04-07T19:50:25.753Z,2.13
2023-04-07T19:52:32.252Z,1.00
2023-04-07T19:54:35.000Z,1.33
2023-04-07T19:56:38.141Z,1.77
2023-04-07T19:58:40.956Z,1.60
2023-04-07T20:00:45.712Z,1.40
2023-04-07T20:02:49.389Z,1.70
2023-04-07T20:04:53.640Z,1.88
2023-04-07T20:06:56.345Z,1.58
2023-04-07T20:08:59.098Z,1.52
2023-04-07T20:11:01.837Z,1.98
2023-04-07T20:13:06.405Z,1.40
2023-04-07T20:15:09.791Z,1.45
2023-04-07T20:17:12.718Z,1.92
2023-04-07T20:19:16.023Z,0.98
2023-04-07T20:21:18.792Z,1.27
2023-04-07T20:23:22.400Z,1.40
2023-04-07T20:25:25.208Z,1.20
2023-04-07T20:27:27.906Z,0.85
2023-04-07T20:29:30.708Z,1.30
2023-04-07T20:31:34.571Z,1.38
2023-04-07T20:33:37.441Z,1.92
2023-04-07T20:35:40.285Z,1.23
2023-04-07T20:37:44.049Z,1.75
2023-04-07T20:39:46.845Z,1.48
2023-04-07T20:41:49.546Z,1.27
2023-04-07T20:43:52.877Z,1.67
2023-04-07T20:45:56.960Z,1.50
2023-04-07T20:48:00.356Z,1.50
2023-04-07T20:50:03.197Z,1.20
2023-04-07T20:52:07.413Z,1.92
2023-04-07T20:54:10.192Z,1.58
2023-04-07T20:56:12.889Z,1.30
2023-04-07T20:58:17.847Z,1.73
2023-04-07T21:00:20.702Z,1.27
2023-04-07T21:02:23.812Z,1.38
2023-04-07T21:04:26.735Z,1.85
2023-04-07T21:06:29.572Z,1.25
2023-04-07T21:08:32.253Z,1.73
2023-04-07T21:10:34.906Z,1.40
2023-04-07T21:12:38.684Z,0.88
2023-04-07T21:14:41.324Z,1.17
2023-04-07T21:16:44.136Z,1.13
2023-04-07T21:18:47.014Z,1.35
2023-04-07T21:20:49.906Z,1.60
2023-04-07T21:22:52.531Z,1.90
2023-04-07T21:24:57.177Z,1.00
2023-04-07T21:26:59.964Z,1.67
2023-04-07T21:29:02.633Z,1.00
2023-04-07T21:31:05.995Z,1.27
2023-04-07T21:33:08.882Z,0.82
2023-04-07T21:35:11.619Z,1.50
2023-04-07T21:37:14.221Z,1.20
2023-04-07T21:39:16.987Z,1.20
2023-04-07T21:41:19.591Z,1.65
2023-04-07T21:43:23.781Z,1.65
2023-04-07T21:45:26.556Z,1.50
2023-04-07T21:47:29.242Z,2.42
2023-04-07T21:49:32.044Z,1.42
2023-04-07T21:51:34.948Z,0.93
2023-04-07T21:53:37.988Z,1.55
2023-04-07T21:55:40.886Z,1.63
2023-04-07T21:57:43.524Z,1.58
2023-04-07T21:59:46.278Z,0.90
2023-04-07T22:01:48.988Z,1.58
2023-04-07T22:03:52.058Z,1.45
2023-04-07T22:05:55.105Z,1.10
2023-04-07T22:07:58.665Z,1.33
2023-04-07T22:10:01.538Z,1.52
2023-04-07T22:12:05.901Z,1.42
2023-04-07T22:14:08.590Z,1.38
2023-04-07T22:16:12.311Z,1.42
2023-04-07T22:18:15.018Z,2.10
2023-04-07T22:20:17.989Z,1.27
2023-04-07T22:22:20.525Z,1.42
2023-04-07T22:24:23.187Z,1.10
2023-04-07T22:26:26.084Z,1.52
2023-04-07T22:28:28.731Z,2.05
2023-04-07T22:30:31.318Z,1.95
2023-04-07T22:32:34.070Z,1.52
2023-04-07T22:34:36.881Z,1.70
2023-04-07T22:36:39.467Z,1.40
2023-04-07T22:38:42.870Z,2.05
2023-04-07T22:40:45.582Z,2.08
2023-04-07T22:42:48.654Z,1.48
2023-04-07T22:44:51.659Z,1.55
2023-04-07T22:46:54.389Z,1.30
2023-04-07T22:48:57.601Z,1.55
2023-04-07T22:51:00.203Z,1.63
2023-04-07T22:53:02.789Z,1.33
2023-04-07T22:55:06.116Z,1.40
2023-04-07T22:57:08.813Z,1.48
2023-04-07T22:59:11.429Z,1.80
2023-04-07T23:01:14.199Z,1.00
2023-04-07T23:03:17.353Z,2.08
2023-04-07T23:05:20.153Z,1.65
2023-04-07T23:07:22.809Z,1.58
2023-04-07T23:09:25.894Z,1.20
2023-04-07T23:11:28.551Z,1.30
2023-04-07T23:13:31.163Z,1.40
2023-04-07T23:15:36.550Z,1.67
2023-04-07T23:17:39.310Z,1.75
2023-04-07T23:19:41.997Z,1.80
2023-04-07T23:21:44.662Z,1.73
2023-04-07T23:23:47.246Z,1.60
2023-04-07T23:25:49.876Z,1.02
2023-04-07T23:27:52.489Z,1.30
2023-04-07T23:29:55.146Z,1.63
2023-04-07T23:31:57.839Z,1.38
2023-04-07T23:34:01.276Z,1.30
2023-04-07T23:36:04.280Z,1.10
2023-04-07T23:38:09.020Z,1.27
2023-04-07T23:40:12.710Z,1.40
2023-04-07T23:42:15.334Z,1.25
2023-04-07T23:44:17.969Z,1.58
2023-04-07T23:46:21.322Z,1.08
2023-04-07T23:48:25.847Z,1.63
2023-04-07T23:50:28.517Z,1.77
2023-04-07T23:52:31.167Z,1.80
2023-04-07T23:54:33.963Z,1.63
2023-04-07T23:56:36.677Z,1.77
2023-04-07T23:58:39.384Z,1.92
